Time;durP1;ratioP1;P1;durP2;ratioP2;P2;SDS_P1;SDS_P2;PMS_P1;PMS_P2;Temp;Humidity;BMP_temperature;BMP_pressure;BME280_temperature;BME280_humidity;BME280_pressure;Samples;Min_cycle;Max_cycle;Signal;HPM_P1;HPM_P2
2023/03/08 00:01:25;;;;;;;12.50;8.30;;;3.80;99.90;;;;;;5035918;28;20193;-69
2023/03/08 00:03:53;;;;;;;10.23;8.07;;;3.90;99.90;;;;;;5033083;28;20248;-69
2023/03/08 00:06:18;;;;;;;10.77;8.47;;;3.90;99.90;;;;;;5026330;28;20531;-69
2023/03/08 00:08:44;;;;;;;11.50;7.90;;;3.90;99.90;;;;;;5028882;28;20466;-69
2023/03/08 00:11:11;;;;;;;10.23;8.10;;;3.90;99.90;;;;;;5031126;28;20173;-69
2023/03/08 00:13:37;;;;;;;12.40;8.37;;;3.90;99.90;;;;;;5033707;28;20432;-69
2023/03/08 00:16:04;;;;;;;13.93;7.97;;;3.90;99.90;;;;;;5039448;28;20435;-69
2023/03/08 00:18:30;;;;;;;11.27;8.33;;;4.00;99.90;;;;;;5037834;28;20214;-69
2023/03/08 00:21:07;;;;;;;12.83;8.40;;;4.00;99.90;;;;;;5039365;28;20486;-69
2023/03/08 00:23:33;;;;;;;11.80;7.97;;;4.00;99.90;;;;;;5027944;28;20180;-69
2023/03/08 00:25:58;;;;;;;12.27;9.60;;;4.00;99.90;;;;;;5030863;28;20445;-69
2023/03/08 00:28:24;;;;;;;10.63;8.40;;;4.00;99.90;;;;;;5038139;28;20274;-69
2023/03/08 00:31:01;;;;;;;11.97;8.57;;;4.00;99.90;;;;;;5032925;28;20198;-69
2023/03/08 00:33:27;;;;;;;11.67;8.53;;;4.00;99.90;;;;;;5039209;28;20268;-69
2023/03/08 00:35:57;;;;;;;12.77;9.33;;;4.00;99.90;;;;;;5045753;28;20436;-69
2023/03/08 00:38:23;;;;;;;13.47;8.43;;;4.00;99.90;;;;;;5028773;28;20484;-69
2023/03/08 00:40:48;;;;;;;10.00;8.20;;;4.00;99.90;;;;;;5035101;28;20465;-69
2023/03/08 00:43:14;;;;;;;15.10;9.70;;;4.00;99.90;;;;;;5038490;28;20224;-69
2023/03/08 00:45:39;;;;;;;9.97;8.57;;;3.90;99.90;;;;;;5034398;28;20662;-69
2023/03/08 00:48:05;;;;;;;14.27;8.83;;;3.90;99.90;;;;;;5033901;28;20212;-70
2023/03/08 00:50:30;;;;;;;14.70;9.47;;;3.80;99.90;;;;;;5033841;28;20178;-69
2023/03/08 00:52:56;;;;;;;14.83;10.10;;;3.80;99.90;;;;;;5035446;28;20550;-69
2023/03/08 00:55:21;;;;;;;12.77;8.93;;;3.80;99.90;;;;;;5036512;28;20671;-69
2023/03/08 00:57:47;;;;;;;11.87;9.17;;;3.70;99.90;;;;;;5039701;28;20307;-69
2023/03/08 01:00:13;;;;;;;11.40;9.70;;;3.70;99.90;;;;;;5035083;28;20183;-69
2023/03/08 01:02:41;;;;;;;15.30;9.80;;;3.70;99.90;;;;;;5030650;28;20186;-69
2023/03/08 01:05:07;;;;;;;14.10;8.60;;;3.60;99.90;;;;;;5038604;28;20519;-69
2023/03/08 01:07:33;;;;;;;11.50;8.57;;;3.60;99.90;;;;;;5046101;28;20456;-69
2023/03/08 01:09:59;;;;;;;13.70;9.87;;;3.60;99.90;;;;;;5037663;28;20823;-69
2023/03/08 01:12:24;;;;;;;14.90;9.87;;;3.60;99.90;;;;;;5033768;28;20632;-69
2023/03/08 01:14:51;;;;;;;14.27;8.97;;;3.60;99.90;;;;;;5042860;28;20196;-69
2023/03/08 01:17:19;;;;;;;13.27;9.47;;;3.60;99.90;;;;;;5034902;28;20600;-69
2023/03/08 01:19:45;;;;;;;15.13;10.03;;;3.60;99.90;;;;;;5033295;28;20952;-69
2023/03/08 01:22:11;;;;;;;15.70;10.83;;;3.60;99.90;;;;;;5046252;28;20477;-69
2023/03/08 01:24:36;;;;;;;13.90;9.80;;;3.60;99.90;;;;;;5036060;28;20197;-69
2023/03/08 01:27:02;;;;;;;15.70;10.30;;;3.50;99.90;;;;;;5034721;28;20194;-69
2023/03/08 01:29:27;;;;;;;12.87;9.50;;;3.50;99.90;;;;;;5044467;28;20170;-69
2023/03/08 01:31:53;;;;;;;11.03;9.80;;;3.50;99.90;;;;;;5045526;28;20269;-70
2023/03/08 01:34:19;;;;;;;14.60;10.60;;;3.40;99.90;;;;;;5047519;28;20671;-69
2023/03/08 01:36:45;;;;;;;18.37;9.60;;;3.40;99.90;;;;;;5038931;28;20938;-69
2023/03/08 01:39:11;;;;;;;14.10;9.23;;;3.40;99.90;;;;;;5038135;28;20427;-69
2023/03/08 01:41:37;;;;;;;13.70;9.83;;;3.40;99.90;;;;;;5035740;28;20713;-69
2023/03/08 01:44:03;;;;;;;13.40;9.80;;;3.40;99.90;;;;;;5032086;28;20202;-69
2023/03/08 01:46:32;;;;;;;17.57;10.17;;;3.30;99.90;;;;;;5032138;28;20425;-69
2023/03/08 01:49:06;;;;;;;16.80;9.57;;;3.20;99.90;;;;;;5032976;28;20198;-69
2023/03/08 01:51:50;;;;;;;13.07;9.10;;;3.20;99.90;;;;;;5042419;28;20444;-69
2023/03/08 01:54:27;;;;;;;10.43;8.37;;;3.20;99.90;;;;;;5038002;28;20965;-69
2023/03/08 01:56:57;;;;;;;13.43;10.13;;;3.10;99.90;;;;;;5033001;28;20934;-69
2023/03/08 01:59:24;;;;;;;11.77;10.50;;;3.10;99.90;;;;;;5025687;28;20570;-70
2023/03/08 02:01:49;;;;;;;12.97;9.77;;;3.00;99.90;;;;;;5033575;28;20449;-69
2023/03/08 02:04:15;;;;;;;16.13;10.47;;;2.90;99.90;;;;;;5032699;28;20459;-69
2023/03/08 02:06:42;;;;;;;15.40;9.90;;;2.90;99.90;;;;;;5034577;28;20184;-69
2023/03/08 02:09:08;;;;;;;15.50;9.80;;;2.90;99.90;;;;;;5038543;28;20162;-70
2023/03/08 02:11:37;;;;;;;15.83;9.93;;;2.80;99.90;;;;;;5040702;28;20437;-69
2023/03/08 02:14:02;;;;;;;13.23;10.57;;;2.80;99.90;;;;;;5032144;28;20257;-69
2023/03/08 02:16:28;;;;;;;12.70;8.80;;;2.80;99.90;;;;;;5031644;28;20536;-69
2023/03/08 02:19:03;;;;;;;12.80;10.00;;;2.80;99.90;;;;;;5038370;28;20241;-68
2023/03/08 02:21:30;;;;;;;15.73;11.53;;;2.80;99.90;;;;;;5034331;28;20177;-69
2023/03/08 02:24:04;;;;;;;13.33;8.13;;;2.90;99.90;;;;;;5032327;28;20460;-68
2023/03/08 02:26:29;;;;;;;15.30;10.10;;;2.80;99.90;;;;;;5033116;28;20436;-68
2023/03/08 02:28:55;;;;;;;16.30;10.33;;;2.90;99.90;;;;;;5038160;28;20992;-68
2023/03/08 02:31:20;;;;;;;14.40;8.87;;;2.90;99.90;;;;;;5031430;28;20193;-68
2023/03/08 02:33:46;;;;;;;14.40;10.53;;;2.80;99.90;;;;;;5033140;28;20180;-69
2023/03/08 02:36:11;;;;;;;16.60;10.50;;;2.90;99.90;;;;;;5043964;28;20185;-68
2023/03/08 02:38:37;;;;;;;13.53;9.67;;;2.80;99.90;;;;;;5035472;28;20577;-68
2023/03/08 02:41:03;;;;;;;13.17;8.40;;;2.80;99.90;;;;;;5034647;28;20198;-68
2023/03/08 02:43:28;;;;;;;14.77;10.47;;;2.90;99.90;;;;;;5039720;28;20197;-68
2023/03/08 02:45:54;;;;;;;13.97;9.60;;;2.90;99.90;;;;;;5041282;28;20805;-69
2023/03/08 02:48:19;;;;;;;14.83;9.47;;;2.90;99.90;;;;;;5032074;28;20202;-68
2023/03/08 02:50:45;;;;;;;15.40;9.50;;;3.00;99.90;;;;;;5034987;28;20186;-68
2023/03/08 02:53:10;;;;;;;11.53;9.23;;;3.00;99.90;;;;;;5041053;28;20178;-69
2023/03/08 02:55:36;;;;;;;11.83;9.13;;;3.00;99.90;;;;;;5040308;28;20235;-68
2023/03/08 02:58:07;;;;;;;14.63;10.53;;;3.10;99.90;;;;;;5038479;28;20202;-68
2023/03/08 03:00:33;;;;;;;13.50;9.40;;;3.10;99.90;;;;;;5036578;28;20198;-68
2023/03/08 03:02:59;;;;;;;14.10;9.40;;;3.10;99.90;;;;;;5043754;28;20794;-68
2023/03/08 03:05:24;;;;;;;11.60;9.47;;;3.10;99.90;;;;;;5044463;28;20459;-68
2023/03/08 03:07:50;;;;;;;13.80;8.60;;;3.10;99.90;;;;;;5039584;28;20881;-68
2023/03/08 03:10:16;;;;;;;16.07;10.13;;;3.20;99.90;;;;;;5031777;28;20174;-69
2023/03/08 03:12:42;;;;;;;13.47;8.83;;;3.20;99.90;;;;;;5037878;28;20440;-69
2023/03/08 03:15:09;;;;;;;10.67;9.00;;;3.20;99.90;;;;;;5032236;28;20664;-68
2023/03/08 03:17:38;;;;;;;15.87;10.30;;;3.20;99.90;;;;;;5032126;28;20977;-68
2023/03/08 03:20:05;;;;;;;15.03;10.33;;;3.20;99.90;;;;;;5030609;28;20433;-68
2023/03/08 03:22:31;;;;;;;11.93;9.00;;;3.20;99.90;;;;;;5045230;28;20893;-68
2023/03/08 03:24:57;;;;;;;10.70;8.30;;;3.30;99.90;;;;;;5031291;28;20888;-69
2023/03/08 03:27:22;;;;;;;14.10;9.63;;;3.30;99.90;;;;;;5031631;28;20565;-69
2023/03/08 03:29:48;;;;;;;12.67;8.50;;;3.30;99.90;;;;;;5029443;28;20547;-68
2023/03/08 03:32:13;;;;;;;16.00;9.77;;;3.30;99.90;;;;;;5043742;28;20192;-68
2023/03/08 03:34:39;;;;;;;11.83;8.70;;;3.20;99.90;;;;;;5050252;28;20177;-68
2023/03/08 03:37:05;;;;;;;12.73;9.13;;;3.20;99.90;;;;;;5040746;28;20281;-69
2023/03/08 03:39:33;;;;;;;12.27;9.00;;;3.20;99.90;;;;;;5039104;28;20530;-67
2023/03/08 03:41:59;;;;;;;13.40;9.30;;;3.20;99.90;;;;;;5030765;28;20182;-68
2023/03/08 03:44:28;;;;;;;12.33;8.30;;;3.20;99.90;;;;;;5032041;28;20978;-69
2023/03/08 03:46:54;;;;;;;12.77;8.30;;;3.20;99.90;;;;;;5046574;28;20454;-69
2023/03/08 03:49:19;;;;;;;10.80;8.27;;;3.20;99.90;;;;;;5029396;28;20445;-69
2023/03/08 03:51:44;;;;;;;12.97;8.57;;;3.20;99.90;;;;;;5031898;28;20228;-68
2023/03/08 03:54:10;;;;;;;10.70;7.37;;;3.10;99.90;;;;;;5037614;28;21378;-68
2023/03/08 03:56:35;;;;;;;11.83;8.70;;;3.20;99.90;;;;;;5036257;28;20196;-68
2023/03/08 03:59:01;;;;;;;13.60;8.83;;;3.10;99.90;;;;;;5031430;28;20280;-69
2023/03/08 04:01:31;;;;;;;11.90;8.10;;;3.10;99.90;;;;;;5029679;28;20714;-68
2023/03/08 04:03:57;;;;;;;12.83;9.80;;;3.10;99.90;;;;;;5032003;28;20731;-68
2023/03/08 04:06:28;;;;;;;12.03;8.20;;;3.10;99.90;;;;;;5043136;28;20929;-68
2023/03/08 04:09:03;;;;;;;12.70;9.50;;;3.20;99.90;;;;;;5040460;28;20452;-69
2023/03/08 04:11:33;;;;;;;13.50;9.20;;;3.10;99.90;;;;;;5035992;28;20812;-69
2023/03/08 04:13:59;;;;;;;11.93;9.40;;;3.10;99.90;;;;;;5032435;28;20436;-68
2023/03/08 04:16:28;;;;;;;10.90;8.87;;;3.10;99.90;;;;;;5041740;28;20436;-68
2023/03/08 04:18:56;;;;;;;18.80;8.87;;;3.10;99.90;;;;;;5039859;28;20682;-69
2023/03/08 04:21:22;;;;;;;13.50;9.47;;;3.20;99.90;;;;;;5031408;28;20578;-69
2023/03/08 04:23:47;;;;;;;15.67;9.30;;;3.10;99.90;;;;;;5032363;28;20902;-68
2023/03/08 04:26:13;;;;;;;12.43;8.10;;;3.10;99.90;;;;;;5031043;28;20937;-69
2023/03/08 04:28:40;;;;;;;13.83;8.90;;;3.10;99.90;;;;;;5034440;28;20564;-68
2023/03/08 04:31:13;;;;;;;11.40;8.50;;;3.10;99.90;;;;;;5030988;28;20186;-68
2023/03/08 04:33:39;;;;;;;11.30;9.90;;;3.10;99.90;;;;;;5040943;28;20865;-68
2023/03/08 04:36:05;;;;;;;17.07;10.10;;;3.10;99.90;;;;;;5063748;28;20420;-68
2023/03/08 04:38:32;;;;;;;13.50;9.23;;;3.10;99.90;;;;;;5028944;28;20241;-67
2023/03/08 04:41:01;;;;;;;9.73;8.00;;;3.10;99.90;;;;;;5028640;28;20644;-68
2023/03/08 04:43:32;;;;;;;12.00;9.00;;;3.10;99.90;;;;;;5034134;28;20433;-68
2023/03/08 04:45:59;;;;;;;11.73;8.97;;;3.10;99.90;;;;;;5043606;28;20481;-68
2023/03/08 04:48:24;;;;;;;13.00;9.73;;;3.20;99.90;;;;;;5041809;28;20802;-68
2023/03/08 04:50:59;;;;;;;12.80;8.87;;;3.20;99.90;;;;;;5030821;28;20436;-68
2023/03/08 04:53:26;;;;;;;13.03;8.77;;;3.20;99.90;;;;;;5039046;28;20177;-68
2023/03/08 04:55:52;;;;;;;12.50;8.80;;;3.20;99.90;;;;;;5042206;28;20448;-68
2023/03/08 04:58:18;;;;;;;11.33;8.90;;;3.20;99.90;;;;;;5037812;28;20841;-68
2023/03/08 05:00:44;;;;;;;11.47;8.37;;;3.30;99.90;;;;;;5030439;28;20433;-68
2023/03/08 05:03:11;;;;;;;13.60;9.00;;;3.30;99.90;;;;;;5033369;28;20467;-69
2023/03/08 05:05:36;;;;;;;13.83;9.67;;;3.30;99.90;;;;;;5039663;28;20467;-68
2023/03/08 05:08:04;;;;;;;15.53;9.97;;;3.30;99.90;;;;;;5036579;28;21000;-69
2023/03/08 05:10:30;;;;;;;18.07;11.80;;;3.30;99.90;;;;;;5027858;28;20174;-68
2023/03/08 05:12:55;;;;;;;14.23;10.07;;;3.40;99.90;;;;;;5031326;28;20512;-68
2023/03/08 05:15:23;;;;;;;13.03;9.60;;;3.30;99.90;;;;;;5041425;28;21029;-68
2023/03/08 05:17:50;;;;;;;14.40;10.17;;;3.30;99.90;;;;;;5040835;28;20212;-68
2023/03/08 05:20:16;;;;;;;13.73;9.73;;;3.40;99.90;;;;;;5036155;28;20980;-68
2023/03/08 05:22:42;;;;;;;13.17;9.07;;;3.40;99.90;;;;;;5028435;28;20823;-69
2023/03/08 05:25:08;;;;;;;11.83;8.53;;;3.40;99.90;;;;;;5039744;28;20456;-69
2023/03/08 05:27:34;;;;;;;19.20;10.40;;;3.40;99.90;;;;;;5040557;28;20459;-67
2023/03/08 05:29:59;;;;;;;15.03;10.33;;;3.40;99.90;;;;;;5031941;28;20560;-68
2023/03/08 05:32:25;;;;;;;17.50;11.00;;;3.40;99.90;;;;;;5029057;28;20439;-69
2023/03/08 05:34:52;;;;;;;12.17;8.77;;;3.50;99.90;;;;;;5032491;28;20186;-68
2023/03/08 05:37:17;;;;;;;13.50;10.37;;;3.50;99.90;;;;;;5030099;28;20202;-68
2023/03/08 05:39:43;;;;;;;13.93;9.73;;;3.50;99.90;;;;;;5031553;28;20498;-68
2023/03/08 05:42:10;;;;;;;16.67;10.30;;;3.60;99.90;;;;;;5027549;28;20660;-68
2023/03/08 05:44:36;;;;;;;16.13;11.10;;;3.50;99.90;;;;;;5028607;28;20276;-69
2023/03/08 05:47:02;;;;;;;15.77;10.57;;;3.50;99.90;;;;;;5027623;28;20459;-68
2023/03/08 05:49:27;;;;;;;14.00;9.60;;;3.60;99.90;;;;;;5027845;28;20181;-67
2023/03/08 05:51:53;;;;;;;16.90;10.93;;;3.60;99.90;;;;;;5028290;28;20178;-69
2023/03/08 05:54:19;;;;;;;12.60;10.00;;;3.60;99.90;;;;;;5038298;28;20174;-69
2023/03/08 05:56:45;;;;;;;12.93;9.60;;;3.60;99.90;;;;;;5038725;28;20790;-68
2023/03/08 05:59:10;;;;;;;15.93;10.33;;;3.60;99.90;;;;;;5030380;28;20448;-68
2023/03/08 06:01:36;;;;;;;16.43;9.40;;;3.60;99.90;;;;;;5030205;28;20189;-68
2023/03/08 06:04:01;;;;;;;14.43;9.73;;;3.60;99.90;;;;;;5032810;28;20197;-69
2023/03/08 06:06:27;;;;;;;15.77;12.43;;;3.70;99.90;;;;;;5028910;28;20187;-68
2023/03/08 06:08:54;;;;;;;18.13;12.60;;;3.70;99.90;;;;;;5030900;28;20202;-68
2023/03/08 06:11:20;;;;;;;16.47;10.50;;;3.80;99.90;;;;;;5036110;28;20177;-69
2023/03/08 06:13:46;;;;;;;16.70;11.97;;;3.80;99.90;;;;;;5036820;28;20433;-68
2023/03/08 06:16:12;;;;;;;16.67;11.30;;;3.70;99.90;;;;;;5044109;28;20296;-68
2023/03/08 06:18:39;;;;;;;15.50;11.50;;;3.80;99.90;;;;;;5003647;28;1010825;-68
2023/03/08 06:21:20;;;;;;;16.43;10.80;;;3.90;99.90;;;;;;5038844;28;20231;-68
2023/03/08 06:23:46;;;;;;;19.13;13.43;;;3.90;99.90;;;;;;5036435;28;20452;-68
2023/03/08 06:26:12;;;;;;;14.67;10.63;;;3.90;99.90;;;;;;5045796;28;20451;-69
2023/03/08 06:28:41;;;;;;;15.47;12.93;;;4.00;99.90;;;;;;5044595;28;20451;-69
2023/03/08 06:31:10;;;;;;;17.57;12.47;;;4.00;99.90;;;;;;5038345;28;20452;-68
2023/03/08 06:33:36;;;;;;;19.83;13.50;;;4.00;99.90;;;;;;5046037;28;20989;-69
2023/03/08 06:36:07;;;;;;;17.30;11.97;;;4.00;99.90;;;;;;5051204;28;20528;-68
2023/03/08 06:38:34;;;;;;;18.20;13.77;;;4.10;99.90;;;;;;5030570;28;20206;-68
2023/03/08 06:41:01;;;;;;;24.33;13.93;;;4.10;99.90;;;;;;5035852;28;20504;-68
2023/03/08 06:43:27;;;;;;;20.50;13.57;;;4.10;99.90;;;;;;5036140;28;20453;-68
2023/03/08 06:45:53;;;;;;;22.47;14.57;;;4.10;99.90;;;;;;5034015;28;20461;-68
2023/03/08 06:48:19;;;;;;;19.80;12.63;;;4.20;99.90;;;;;;5035635;28;20204;-68
2023/03/08 06:50:45;;;;;;;18.93;13.90;;;4.20;99.90;;;;;;5040373;28;20584;-68
2023/03/08 06:53:11;;;;;;;19.70;12.80;;;4.20;99.90;;;;;;5032745;28;20451;-68
2023/03/08 06:55:38;;;;;;;20.43;12.37;;;4.30;99.90;;;;;;5039875;28;20450;-69
2023/03/08 06:58:04;;;;;;;16.93;12.83;;;4.30;99.90;;;;;;5031387;28;20460;-70
2023/03/08 07:00:29;;;;;;;18.87;14.33;;;4.30;99.90;;;;;;5032047;28;20820;-69
2023/03/08 07:02:55;;;;;;;21.70;13.27;;;4.40;99.90;;;;;;5041962;28;20439;-71
2023/03/08 07:05:21;;;;;;;17.93;13.33;;;4.40;99.90;;;;;;5034975;28;20262;-74
2023/03/08 07:07:47;;;;;;;17.07;12.77;;;4.40;99.90;;;;;;5040120;28;20281;-70
2023/03/08 07:10:16;;;;;;;22.50;14.73;;;4.50;99.90;;;;;;5035713;28;20941;-70
2023/03/08 07:12:45;;;;;;;16.47;13.27;;;4.50;99.90;;;;;;5031405;28;20558;-70
2023/03/08 07:15:17;;;;;;;20.53;13.53;;;4.60;99.90;;;;;;5029261;28;20934;-70
2023/03/08 07:17:43;;;;;;;18.87;14.00;;;4.60;99.90;;;;;;5033011;28;20538;-71
2023/03/08 07:20:12;;;;;;;23.27;14.23;;;4.60;99.90;;;;;;5024326;28;20432;-71
2023/03/08 07:22:37;;;;;;;18.17;13.37;;;4.60;99.90;;;;;;5033318;28;20500;-71
2023/03/08 07:25:03;;;;;;;25.13;14.83;;;4.70;99.90;;;;;;5033109;28;20564;-71
2023/03/08 07:27:29;;;;;;;16.90;13.03;;;4.70;99.90;;;;;;5032595;28;20524;-71
2023/03/08 07:29:54;;;;;;;18.60;14.37;;;4.80;99.90;;;;;;5032268;28;20170;-71
2023/03/08 07:32:20;;;;;;;25.10;15.93;;;4.80;99.90;;;;;;5033065;28;20178;-71
2023/03/08 07:34:45;;;;;;;19.90;13.50;;;4.80;99.90;;;;;;5033098;28;20171;-71
2023/03/08 07:37:12;;;;;;;22.17;12.30;;;4.80;99.90;;;;;;5032958;28;20244;-71
2023/03/08 07:39:37;;;;;;;17.00;13.27;;;4.80;99.90;;;;;;5031524;28;20605;-71
2023/03/08 07:42:03;;;;;;;17.53;14.00;;;4.90;99.90;;;;;;5032903;28;20413;-71
2023/03/08 07:44:29;;;;;;;16.00;12.17;;;4.90;99.90;;;;;;5032849;28;20248;-72
2023/03/08 07:46:54;;;;;;;16.20;13.00;;;4.90;99.90;;;;;;5032730;28;20437;-71
2023/03/08 07:49:20;;;;;;;18.33;12.53;;;4.80;99.90;;;;;;5031160;28;20725;-71
2023/03/08 07:51:49;;;;;;;18.13;12.37;;;4.80;99.90;;;;;;5031415;28;20170;-72
2023/03/08 07:54:15;;;;;;;15.40;11.73;;;4.80;99.90;;;;;;5032585;28;20174;-71
2023/03/08 07:56:40;;;;;;;16.10;11.03;;;4.80;99.90;;;;;;5032507;28;20914;-71
2023/03/08 07:59:06;;;;;;;18.20;12.20;;;4.80;99.90;;;;;;5031245;28;20267;-71
2023/03/08 08:01:31;;;;;;;17.87;12.27;;;4.90;99.90;;;;;;5032518;28;20170;-70
2023/03/08 08:03:58;;;;;;;14.33;10.40;;;4.90;99.90;;;;;;5032473;28;20197;-71
2023/03/08 08:06:24;;;;;;;14.80;10.90;;;5.00;99.90;;;;;;5032559;28;20177;-71
2023/03/08 08:08:50;;;;;;;15.50;11.83;;;5.00;99.90;;;;;;5030994;28;20818;-71
2023/03/08 08:11:18;;;;;;;16.30;11.93;;;5.00;99.90;;;;;;5032478;28;20413;-71
2023/03/08 08:13:45;;;;;;;16.07;10.30;;;5.00;99.90;;;;;;5032314;28;20165;-71
2023/03/08 08:16:13;;;;;;;17.20;11.37;;;5.00;99.90;;;;;;5032143;28;20417;-71
2023/03/08 08:18:39;;;;;;;16.40;12.97;;;5.00;99.90;;;;;;5030497;28;20534;-72
2023/03/08 08:21:08;;;;;;;11.77;9.10;;;5.00;99.90;;;;;;5031742;28;20428;-70
2023/03/08 08:23:34;;;;;;;12.63;10.67;;;5.10;99.90;;;;;;5031819;28;20417;-71
2023/03/08 08:26:02;;;;;;;17.70;10.80;;;5.10;99.90;;;;;;5032146;28;20457;-71
2023/03/08 08:28:28;;;;;;;15.47;11.57;;;5.10;99.90;;;;;;5031382;28;20493;-71
2023/03/08 08:31:03;;;;;;;13.67;11.23;;;5.00;99.90;;;;;;5032136;28;20953;-72
2023/03/08 08:33:29;;;;;;;15.97;11.50;;;5.00;99.90;;;;;;5031520;28;20177;-70
2023/03/08 08:35:55;;;;;;;19.43;12.00;;;4.90;99.90;;;;;;5032126;28;20478;-71
2023/03/08 08:38:21;;;;;;;19.37;12.00;;;5.00;99.90;;;;;;5031136;28;20806;-71
2023/03/08 08:40:47;;;;;;;15.23;10.63;;;5.10;99.90;;;;;;5031970;28;20249;-70
2023/03/08 08:43:13;;;;;;;15.43;11.90;;;5.10;99.90;;;;;;5031312;28;20193;-71
2023/03/08 08:45:54;;;;;;;22.07;11.40;;;5.20;99.90;;;;;;5031869;28;20464;-71
2023/03/08 08:48:19;;;;;;;16.30;11.97;;;5.20;99.90;;;;;;5031295;28;20236;-70
2023/03/08 08:50:45;;;;;;;16.17;11.17;;;5.10;99.90;;;;;;5031908;28;20988;-71
2023/03/08 08:53:10;;;;;;;19.20;12.67;;;5.10;99.90;;;;;;5030916;28;20205;-71
2023/03/08 08:55:36;;;;;;;17.37;12.77;;;5.10;99.90;;;;;;5031172;28;20523;-70
2023/03/08 08:58:02;;;;;;;20.60;11.70;;;5.10;99.90;;;;;;5031649;28;20225;-71
2023/03/08 09:00:29;;;;;;;18.07;11.83;;;5.10;99.90;;;;;;5031291;28;20702;-71
2023/03/08 09:02:55;;;;;;;14.63;11.73;;;5.10;99.90;;;;;;5030991;28;20440;-70
2023/03/08 09:05:20;;;;;;;14.70;11.53;;;5.10;99.90;;;;;;5031636;28;20467;-71
2023/03/08 09:07:46;;;;;;;17.20;11.53;;;5.20;99.90;;;;;;5031573;28;20266;-70
2023/03/08 09:10:12;;;;;;;18.77;12.63;;;5.20;99.90;;;;;;5031032;28;20179;-70
2023/03/08 09:12:37;;;;;;;20.90;14.23;;;5.30;99.90;;;;;;5031133;28;20179;-70
2023/03/08 09:15:05;;;;;;;17.17;11.80;;;5.30;99.90;;;;;;5031584;28;20186;-71
2023/03/08 09:17:32;;;;;;;17.13;12.97;;;5.30;99.90;;;;;;5031556;28;20720;-71
2023/03/08 09:19:58;;;;;;;14.57;12.00;;;5.30;99.90;;;;;;5030928;28;20452;-71
2023/03/08 09:22:23;;;;;;;14.70;12.47;;;5.30;99.90;;;;;;5030929;28;20922;-71
2023/03/08 09:24:49;;;;;;;18.90;14.07;;;5.40;99.90;;;;;;5031408;28;20460;-70
2023/03/08 09:27:15;;;;;;;18.53;14.57;;;5.40;99.90;;;;;;5032500;28;20198;-71
2023/03/08 09:29:40;;;;;;;19.37;12.70;;;5.40;99.90;;;;;;5034665;28;20232;-71
2023/03/08 09:32:06;;;;;;;17.73;14.10;;;5.50;99.90;;;;;;5034739;28;20214;-71
2023/03/08 09:34:32;;;;;;;15.50;12.50;;;5.60;99.90;;;;;;5035242;28;20248;-70
2023/03/08 09:36:57;;;;;;;24.20;13.47;;;5.70;99.90;;;;;;5035065;28;20206;-71
2023/03/08 09:39:23;;;;;;;17.70;12.10;;;5.80;99.90;;;;;;5034468;28;20580;-71
2023/03/08 09:41:54;;;;;;;17.30;12.87;;;5.80;99.90;;;;;;5034541;28;20186;-71
2023/03/08 09:44:56;;;;;;;23.63;12.47;;;5.90;99.90;;;;;;5034954;28;20609;-71
2023/03/08 09:47:40;;;;;;;14.77;11.90;;;5.90;99.90;;;;;;5035051;28;20574;-71
2023/03/08 09:50:11;;;;;;;20.13;12.67;;;6.10;99.90;;;;;;5034527;28;20421;-71
2023/03/08 09:52:49;;;;;;;14.50;11.70;;;6.20;99.90;;;;;;5034163;28;20930;-70
2023/03/08 09:55:25;;;;;;;12.47;10.80;;;6.30;99.90;;;;;;5029576;28;20947;-70
2023/03/08 09:57:52;;;;;;;17.77;11.77;;;6.40;99.90;;;;;;5034773;28;20444;-71
2023/03/08 10:00:22;;;;;;;17.87;10.30;;;6.50;99.90;;;;;;5034160;28;20425;-71
2023/03/08 10:03:08;;;;;;;13.40;11.00;;;6.60;99.90;;;;;;5033868;28;20443;-70
2023/03/08 10:05:43;;;;;;;14.50;9.60;;;6.80;99.90;;;;;;5034627;28;20467;-71
2023/03/08 10:08:33;;;;;;;10.60;7.70;;;6.90;99.90;;;;;;5034357;28;20444;-70
2023/03/08 10:11:06;;;;;;;13.63;8.60;;;7.00;99.90;;;;;;5034784;28;20431;-71
2023/03/08 10:13:45;;;;;;;10.50;7.83;;;7.20;99.90;;;;;;5033999;28;20459;-70
2023/03/08 10:16:26;;;;;;;11.43;7.70;;;7.40;99.90;;;;;;5034631;28;20940;-70
2023/03/08 10:18:59;;;;;;;10.90;8.40;;;7.40;99.90;;;;;;5033808;28;20456;-71
2023/03/08 10:21:26;;;;;;;10.83;7.97;;;7.40;99.90;;;;;;5034434;28;20417;-71
2023/03/08 10:24:00;;;;;;;8.97;7.30;;;7.50;99.90;;;;;;5032823;28;20852;-70
2023/03/08 10:26:27;;;;;;;9.83;8.00;;;7.60;99.90;;;;;;5034450;28;20754;-71
2023/03/08 10:28:52;;;;;;;8.83;6.87;;;7.70;99.90;;;;;;5033488;28;20440;-71
2023/03/08 10:31:24;;;;;;;9.20;8.20;;;7.70;99.90;;;;;;5034177;28;20783;-71
2023/03/08 10:34:15;;;;;;;8.83;7.13;;;7.80;99.90;;;;;;5033488;28;20699;-71
2023/03/08 10:37:00;;;;;;;11.93;8.70;;;8.00;99.90;;;;;;5031249;28;20461;-70
2023/03/08 10:39:26;;;;;;;8.63;7.30;;;7.90;99.90;;;;;;5033282;28;20417;-70
2023/03/08 10:41:57;;;;;;;8.10;5.90;;;8.10;99.90;;;;;;5033403;28;20445;-70
2023/03/08 10:44:44;;;;;;;8.40;6.07;;;8.30;99.90;;;;;;5033816;28;20202;-70
2023/03/08 10:47:22;;;;;;;8.00;6.03;;;8.40;99.90;;;;;;5033977;28;20443;-71
2023/03/08 10:49:48;;;;;;;8.17;5.83;;;8.80;99.90;;;;;;5033204;28;20444;-70
2023/03/08 10:52:24;;;;;;;5.83;4.97;;;9.30;99.90;;;;;;5032409;28;20472;-72
2023/03/08 10:55:05;;;;;;;5.73;5.13;;;10.00;99.90;;;;;;5033765;28;20854;-71
2023/03/08 10:57:32;;;;;;;5.00;3.73;;;10.60;99.90;;;;;;5033622;28;20547;-71
2023/03/08 11:00:18;;;;;;;4.93;4.13;;;10.40;99.90;;;;;;5032973;28;20425;-72
2023/03/08 11:02:45;;;;;;;5.00;4.30;;;10.10;99.90;;;;;;5032996;28;20954;-71
2023/03/08 11:05:25;;;;;;;4.50;4.00;;;9.80;99.90;;;;;;5033513;28;20472;-71
2023/03/08 11:07:55;;;;;;;3.73;3.40;;;9.90;99.90;;;;;;5033513;28;20539;-72
2023/03/08 11:10:23;;;;;;;4.43;2.57;;;9.80;99.90;;;;;;5032829;28;20428;-71
2023/03/08 11:13:14;;;;;;;2.40;2.30;;;9.90;99.90;;;;;;5031945;28;20433;-71
2023/03/08 11:15:46;;;;;;;3.67;2.17;;;10.10;99.90;;;;;;5027642;28;20435;-70
2023/03/08 11:18:30;;;;;;;2.47;2.27;;;10.30;99.90;;;;;;5032763;28;20496;-71
2023/03/08 11:21:04;;;;;;;1.50;1.40;;;10.50;99.90;;;;;;5033297;28;20472;-72
2023/03/08 11:23:39;;;;;;;2.07;1.30;;;10.40;99.90;;;;;;5032495;28;20523;-70
2023/03/08 11:26:17;;;;;;;2.27;1.63;;;10.20;99.90;;;;;;5033110;28;20459;-71
2023/03/08 11:29:14;;;;;;;1.53;1.43;;;10.20;99.90;;;;;;5032404;28;20448;-71
2023/03/08 11:31:52;;;;;;;2.43;1.30;;;10.00;99.90;;;;;;5022351;28;20431;-71
2023/03/08 11:34:46;;;;;;;1.63;1.53;;;10.00;99.90;;;;;;5029134;28;20433;-71
2023/03/08 11:37:20;;;;;;;1.93;1.83;;;10.10;99.90;;;;;;5032958;28;20432;-71
2023/03/08 11:40:19;;;;;;;2.00;1.90;;;10.20;99.90;;;;;;5032295;28;20491;-71
2023/03/08 11:43:14;;;;;;;1.90;1.70;;;10.30;99.90;;;;;;5031767;28;20440;-70
2023/03/08 11:45:57;;;;;;;1.60;1.50;;;10.40;99.90;;;;;;5028655;28;20961;-71
2023/03/08 11:48:59;;;;;;;2.73;1.70;;;10.50;99.90;;;;;;5031970;28;20443;-71
2023/03/08 11:51:46;;;;;;;4.17;2.60;;;10.70;99.90;;;;;;5031555;28;20411;-70
2023/03/08 11:54:33;;;;;;;2.40;2.20;;;10.70;99.90;;;;;;5024764;28;20432;-71
2023/03/08 11:57:03;;;;;;;3.50;2.50;;;10.80;99.90;;;;;;5032609;28;20472;-71
2023/03/08 11:59:43;;;;;;;2.87;2.00;;;10.70;99.90;;;;;;5031948;28;20436;-70
2023/03/08 12:02:09;;;;;;;2.43;2.00;;;10.80;99.90;;;;;;5032059;28;20447;-70
2023/03/08 12:04:44;;;;;;;1.53;1.30;;;10.80;99.90;;;;;;5032354;28;20507;-71
2023/03/08 12:07:56;;;;;;;1.90;1.70;;;10.70;99.90;;;;;;5032366;28;20843;-70
2023/03/08 12:10:24;;;;;;;2.87;1.83;;;10.70;99.90;;;;;;5009671;28;20452;-71
2023/03/08 12:13:13;;;;;;;3.30;1.47;;;10.70;99.90;;;;;;5009659;28;20445;-70
2023/03/08 12:15:51;;;;;;;5.40;1.77;;;10.70;99.90;;;;;;5025919;28;20958;-70
2023/03/08 12:18:33;;;;;;;3.17;1.67;;;10.80;99.90;;;;;;5031433;28;20459;-70
2023/03/08 12:21:37;;;;;;;3.70;2.70;;;10.90;99.90;;;;;;5032390;28;20409;-70
2023/03/08 12:24:42;;;;;;;3.10;1.60;;;11.00;99.90;;;;;;5031154;28;20424;-70
2023/03/08 12:27:22;;;;;;;3.20;2.30;;;11.10;99.90;;;;;;5031087;28;20974;-71
2023/03/08 12:30:03;;;;;;;1.53;1.43;;;11.20;99.90;;;;;;5031378;28;20434;-71
2023/03/08 12:32:30;;;;;;;1.00;0.90;;;11.20;99.90;;;;;;5031522;28;20432;-70
2023/03/08 12:35:22;;;;;;;3.63;2.10;;;11.20;99.90;;;;;;5032064;28;20417;-70
2023/03/08 12:37:59;;;;;;;4.27;2.10;;;11.20;99.90;;;;;;5032064;28;20523;-70
2023/03/08 12:40:30;;;;;;;2.53;1.43;;;11.10;99.90;;;;;;5031329;28;20443;-70
2023/03/08 12:43:11;;;;;;;2.10;1.17;;;11.20;99.90;;;;;;5031417;28;20440;-71
2023/03/08 12:45:39;;;;;;;2.30;1.50;;;11.40;99.90;;;;;;5031882;28;20830;-70
2023/03/08 12:48:04;;;;;;;1.43;1.33;;;11.70;99.90;;;;;;5031742;28;20587;-72
2023/03/08 12:50:41;;;;;;;4.80;1.53;;;12.00;99.90;;;;;;5031357;28;20503;-71
2023/03/08 12:53:27;;;;;;;1.23;1.13;;;12.10;99.90;;;;;;5031103;28;20170;-70
2023/03/08 12:56:05;;;;;;;2.00;1.70;;;12.10;99.90;;;;;;5031880;28;20413;-70